createdAt,value
2019-01-19T00:01:17.281Z,0.54
2019-01-19T00:04:12.011Z,0.60
2019-01-19T00:07:24.412Z,0.74
2019-01-19T00:10:29.846Z,0.86
2019-01-19T00:13:33.105Z,0.96
2019-01-19T00:16:21.586Z,1.00
2019-01-19T00:19:33.825Z,0.92
2019-01-19T00:22:25.631Z,1.03
2019-01-19T00:25:33.887Z,1.00
2019-01-19T00:28:36.759Z,1.07
2019-01-19T00:31:18.543Z,1.14
2019-01-19T00:34:37.761Z,1.13
2019-01-19T00:37:28.522Z,1.20
2019-01-19T00:40:22.655Z,1.14
2019-01-19T00:43:09.626Z,1.09
2019-01-19T00:46:23.730Z,1.22
2019-01-19T00:49:20.587Z,1.29
2019-01-19T00:52:15.311Z,1.32
2019-01-19T00:55:24.442Z,1.31
2019-01-19T00:58:46.949Z,1.41
2019-01-19T01:01:38.970Z,1.48
2019-01-19T01:04:55.479Z,1.40
2019-01-19T01:08:04.545Z,1.23
2019-01-19T01:10:57.584Z,0.93
2019-01-19T01:14:06.989Z,0.85
2019-01-19T01:17:12.508Z,0.64
2019-01-19T01:20:22.643Z,0.46
2019-01-19T01:23:14.238Z,0.42
2019-01-19T01:26:19.273Z,-0.77
2019-01-19T01:29:26.952Z,0.36
2019-01-19T01:32:20.671Z,0.23
2019-01-19T01:35:36.244Z,0.34
2019-01-19T01:38:43.347Z,0.31
2019-01-19T01:42:04.545Z,0.22
2019-01-19T01:44:42.818Z,0.22
2019-01-19T01:48:06.582Z,0.26
2019-01-19T01:51:04.763Z,0.31
2019-01-19T01:54:13.775Z,0.26
2019-01-19T01:56:43.129Z,0.22
2019-01-19T01:59:58.510Z,0.27
2019-01-19T02:02:42.122Z,0.35
2019-01-19T02:05:40.327Z,0.39
2019-01-19T02:08:48.390Z,0.38
2019-01-19T02:11:49.387Z,0.39
2019-01-19T02:14:52.374Z,0.44
2019-01-19T02:17:54.297Z,0.41
2019-01-19T02:20:30.361Z,0.25
2019-01-19T02:23:35.443Z,0.13
2019-01-19T02:26:23.590Z,0.01
2019-01-19T02:29:20.880Z,-0.42
2019-01-19T02:32:27.291Z,-0.40
2019-01-19T02:35:37.415Z,-0.19
2019-01-19T02:38:43.571Z,-0.02
2019-01-19T02:42:06.058Z,-0.15
2019-01-19T02:44:50.057Z,-0.18
2019-01-19T02:48:09.372Z,-0.01
2019-01-19T02:50:50.149Z,0.16
2019-01-19T02:53:46.446Z,0.24
2019-01-19T02:56:50.418Z,0.19
2019-01-19T02:59:57.443Z,0.19
2019-01-19T03:02:54.763Z,0.11
2019-01-19T03:05:39.925Z,0.03
2019-01-19T03:08:49.174Z,0.32
2019-01-19T03:11:55.511Z,0.53
2019-01-19T03:15:00.325Z,0.75
2019-01-19T03:18:09.788Z,0.95
2019-01-19T03:20:54.177Z,0.86
2019-01-19T03:23:42.089Z,0.77
2019-01-19T03:26:43.264Z,0.17
2019-01-19T03:29:41.495Z,-0.29
2019-01-19T03:33:04.182Z,-0.30
2019-01-19T03:36:10.751Z,0.02
2019-01-19T03:39:09.053Z,0.30
2019-01-19T03:42:16.626Z,0.53
2019-01-19T03:45:18.559Z,0.66
2019-01-19T03:48:14.081Z,0.73
2019-01-19T03:51:30.341Z,0.82
2019-01-19T03:54:47.620Z,0.93
2019-01-19T03:57:52.943Z,0.90
2019-01-19T04:00:47.059Z,0.80
2019-01-19T04:03:56.494Z,0.72
2019-01-19T04:06:53.813Z,0.82
2019-01-19T04:09:59.986Z,0.99
2019-01-19T04:13:12.516Z,1.10
2019-01-19T04:16:06.468Z,1.12
2019-01-19T04:19:13.866Z,1.15
2019-01-19T04:22:15.876Z,1.11
2019-01-19T04:25:02.450Z,1.23
2019-01-19T04:27:31.794Z,1.18
2019-01-19T04:30:01.169Z,1.15
2019-01-19T04:32:30.869Z,0.90
2019-01-19T04:35:00.315Z,0.72
2019-01-19T04:37:29.644Z,0.61
2019-01-19T04:39:59.025Z,0.56
2019-01-19T04:42:28.445Z,0.64
2019-01-19T04:44:57.771Z,0.64
2019-01-19T04:47:27.152Z,0.48
2019-01-19T04:49:56.494Z,0.13
2019-01-19T04:52:25.915Z,0.10
2019-01-19T04:54:55.302Z,-0.05
2019-01-19T04:57:25.045Z,-0.25
2019-01-19T04:59:54.431Z,-0.18
2019-01-19T05:02:23.876Z,-0.08
2019-01-19T05:04:53.237Z,-0.12
2019-01-19T05:07:22.728Z,-0.13
2019-01-19T05:09:52.068Z,-0.20
2019-01-19T05:12:21.524Z,-0.31
2019-01-19T05:14:50.871Z,-0.44
2019-01-19T05:17:20.255Z,-0.49
2019-01-19T05:19:49.677Z,-0.49
2019-01-19T05:22:19.070Z,-0.52
2019-01-19T05:24:48.642Z,-0.57
2019-01-19T05:27:18.146Z,-0.56
2019-01-19T05:29:47.653Z,-0.60
2019-01-19T05:32:17.735Z,-0.69
2019-01-19T05:34:47.649Z,-0.72
2019-01-19T05:37:17.033Z,-0.67
2019-01-19T05:39:46.393Z,-0.67
2019-01-19T05:42:15.760Z,-0.61
2019-01-19T05:44:45.126Z,-0.63
2019-01-19T05:47:14.535Z,-0.53
2019-01-19T05:49:44.034Z,-0.49
2019-01-19T05:52:13.846Z,-0.52
2019-01-19T05:54:43.266Z,-0.55
2019-01-19T05:57:12.711Z,-0.51
2019-01-19T05:59:42.508Z,-0.41
2019-01-19T06:02:11.985Z,-0.50
2019-01-19T06:04:42.064Z,-0.51
2019-01-19T06:07:12.314Z,-0.42
2019-01-19T06:09:41.859Z,-0.44
2019-01-19T06:12:11.699Z,-0.54
2019-01-19T06:14:41.502Z,-0.50
2019-01-19T06:17:11.242Z,-0.28
2019-01-19T06:19:40.858Z,-0.27
2019-01-19T06:22:10.726Z,-0.27
2019-01-19T06:24:40.071Z,-0.29
2019-01-19T06:27:09.563Z,-0.20
2019-01-19T06:29:39.103Z,-0.04
2019-01-19T06:32:08.528Z,0.09
2019-01-19T06:34:37.878Z,0.10
2019-01-19T06:37:07.309Z,0.06
2019-01-19T06:39:36.758Z,0.12
2019-01-19T06:42:06.148Z,0.14
2019-01-19T06:44:35.978Z,0.21
2019-01-19T06:47:05.396Z,0.24
2019-01-19T06:49:34.747Z,0.17
2019-01-19T06:52:04.594Z,0.18
2019-01-19T06:54:33.989Z,0.26
2019-01-19T06:57:03.321Z,0.34
2019-01-19T06:59:33.134Z,0.34
2019-01-19T07:02:02.831Z,0.35
2019-01-19T07:04:32.207Z,0.47
2019-01-19T07:07:02.843Z,0.48
2019-01-19T07:09:32.486Z,0.44
2019-01-19T07:12:01.937Z,0.32
2019-01-19T07:14:31.284Z,0.44
2019-01-19T07:17:13.546Z,0.46
2019-01-19T07:19:42.939Z,0.39
2019-01-19T07:22:12.305Z,0.25
2019-01-19T07:24:41.695Z,0.54
2019-01-19T07:27:11.539Z,0.64
2019-01-19T07:29:40.958Z,0.93
2019-01-19T07:32:10.355Z,0.89
2019-01-19T07:34:40.183Z,0.90
2019-01-19T07:37:10.065Z,0.91
2019-01-19T07:39:39.552Z,1.01
2019-01-19T07:42:08.907Z,0.99
2019-01-19T07:44:38.771Z,1.09
2019-01-19T07:47:08.621Z,1.13
2019-01-19T07:49:38.029Z,1.22
2019-01-19T07:52:07.407Z,1.29
2019-01-19T07:54:36.773Z,1.34
2019-01-19T07:57:06.169Z,1.41
2019-01-19T07:59:35.532Z,1.57
2019-01-19T08:02:04.910Z,1.67
2019-01-19T08:04:34.465Z,1.52
2019-01-19T08:07:03.884Z,1.52
2019-01-19T08:09:33.639Z,1.69
2019-01-19T08:12:03.196Z,1.80
2019-01-19T08:14:32.642Z,1.80
2019-01-19T08:17:02.512Z,1.95
2019-01-19T08:19:31.873Z,1.81
2019-01-19T08:22:10.343Z,1.90
2019-01-19T08:24:40.164Z,2.12
2019-01-19T08:27:09.582Z,2.10
2019-01-19T08:29:38.973Z,2.10
2019-01-19T08:32:08.348Z,2.26
2019-01-19T08:34:37.709Z,2.32
2019-01-19T08:37:07.087Z,2.36
2019-01-19T08:39:36.556Z,2.53
2019-01-19T08:42:05.930Z,2.52
2019-01-19T08:44:35.301Z,2.55
2019-01-19T08:47:04.684Z,2.65
2019-01-19T08:49:34.082Z,2.81
2019-01-19T08:52:03.415Z,2.60
2019-01-19T08:54:32.770Z,2.74
2019-01-19T08:57:02.176Z,2.65
2019-01-19T08:59:31.536Z,2.87
2019-01-19T09:02:00.903Z,3.20
2019-01-19T09:04:30.267Z,3.20
2019-01-19T09:06:59.668Z,3.36
2019-01-19T09:09:29.077Z,3.27
2019-01-19T09:11:58.448Z,3.18
2019-01-19T09:14:27.798Z,3.36
2019-01-19T09:16:58.176Z,3.39
2019-01-19T09:19:27.717Z,3.60
2019-01-19T09:21:57.116Z,3.55
2019-01-19T09:24:28.127Z,3.48
2019-01-19T09:26:57.638Z,3.52
2019-01-19T09:29:26.979Z,3.78
2019-01-19T09:31:56.295Z,3.81
2019-01-19T09:34:25.657Z,3.74
2019-01-19T09:36:55.307Z,3.77
2019-01-19T09:39:26.974Z,3.83
2019-01-19T09:41:56.428Z,3.93
2019-01-19T09:44:25.891Z,3.94
2019-01-19T09:46:55.569Z,4.38
2019-01-19T09:49:24.940Z,4.72
2019-01-19T09:51:55.659Z,4.85
2019-01-19T09:54:25.160Z,5.19
2019-01-19T09:56:54.688Z,5.28
2019-01-19T09:59:24.146Z,5.63
2019-01-19T10:01:53.728Z,5.63
2019-01-19T10:04:23.248Z,5.84
2019-01-19T10:06:52.605Z,5.86
2019-01-19T10:09:22.314Z,5.59
2019-01-19T10:11:51.692Z,5.19
2019-01-19T10:14:21.187Z,4.70
2019-01-19T10:16:50.551Z,4.59
2019-01-19T10:19:22.953Z,4.46
2019-01-19T10:21:52.475Z,4.40
2019-01-19T10:24:21.944Z,4.71
2019-01-19T10:26:51.292Z,5.25
2019-01-19T10:29:20.964Z,5.60
2019-01-19T10:31:50.371Z,5.88
2019-01-19T10:34:19.728Z,5.92
2019-01-19T10:36:49.107Z,5.40
2019-01-19T10:39:18.487Z,5.21
2019-01-19T10:41:47.862Z,5.03
2019-01-19T10:44:17.497Z,5.21
2019-01-19T10:46:46.922Z,5.02
2019-01-19T10:49:16.378Z,4.86
2019-01-19T10:51:48.556Z,4.78
2019-01-19T10:54:17.929Z,4.67
2019-01-19T10:56:47.277Z,4.94
2019-01-19T10:59:19.389Z,5.22
2019-01-19T11:01:49.041Z,5.33
2019-01-19T11:04:19.053Z,5.45
2019-01-19T11:06:48.418Z,5.43
2019-01-19T11:09:17.764Z,5.16
2019-01-19T11:11:47.133Z,4.89
2019-01-19T11:14:17.243Z,4.84
2019-01-19T11:16:47.177Z,5.08
2019-01-19T11:19:16.531Z,5.14
2019-01-19T11:21:46.029Z,5.05
2019-01-19T11:24:16.336Z,4.98
2019-01-19T11:26:45.750Z,4.97
2019-01-19T11:29:15.139Z,4.93
2019-01-19T11:31:44.523Z,5.09
2019-01-19T11:34:13.900Z,5.10
2019-01-19T11:36:43.399Z,5.06
2019-01-19T11:39:12.749Z,4.93
2019-01-19T11:41:42.180Z,4.78
2019-01-19T11:44:11.564Z,5.00
2019-01-19T11:46:40.949Z,5.03
2019-01-19T11:49:10.352Z,5.03
2019-01-19T11:51:39.740Z,5.03
2019-01-19T11:54:09.762Z,5.00
2019-01-19T11:56:39.168Z,5.23
2019-01-19T11:59:09.043Z,5.30
2019-01-19T12:01:38.430Z,5.26
2019-01-19T12:04:07.817Z,5.37
2019-01-19T12:06:37.239Z,5.36
2019-01-19T12:09:08.062Z,5.31
2019-01-19T12:11:38.011Z,5.38
2019-01-19T12:14:07.553Z,5.36
2019-01-19T12:16:36.882Z,5.28
2019-01-19T12:19:06.408Z,5.26
2019-01-19T12:21:36.074Z,5.44
2019-01-19T12:24:05.708Z,5.64
2019-01-19T12:26:35.150Z,5.85
2019-01-19T12:29:04.781Z,6.01
2019-01-19T12:31:34.524Z,6.01
2019-01-19T12:34:03.897Z,6.05
2019-01-19T12:36:33.900Z,5.96
2019-01-19T12:39:05.172Z,5.78
2019-01-19T12:41:35.827Z,5.71
2019-01-19T12:44:07.925Z,5.78
2019-01-19T12:46:40.690Z,5.76
2019-01-19T12:49:11.440Z,5.64
2019-01-19T12:51:44.066Z,5.68
2019-01-19T12:54:14.730Z,5.74
2019-01-19T12:56:44.141Z,5.81
2019-01-19T12:59:13.390Z,5.89
2019-01-19T13:01:42.855Z,6.06
2019-01-19T13:04:12.341Z,6.02
2019-01-19T13:06:55.196Z,6.07
2019-01-19T13:09:46.247Z,6.30
2019-01-19T13:12:48.218Z,6.42
2019-01-19T13:15:59.192Z,6.29
2019-01-19T13:18:46.023Z,6.04
2019-01-19T13:22:09.134Z,5.83
2019-01-19T13:25:33.379Z,5.69
2019-01-19T13:28:36.982Z,5.73
2019-01-19T13:31:58.323Z,5.75
2019-01-19T13:35:21.030Z,5.86
2019-01-19T13:38:30.652Z,5.90
2019-01-19T13:41:53.678Z,5.88
2019-01-19T13:45:06.363Z,5.92
2019-01-19T13:48:09.367Z,5.87
2019-01-19T13:51:15.975Z,5.79
2019-01-19T13:54:20.026Z,5.71
2019-01-19T13:57:26.931Z,5.75
2019-01-19T14:00:18.494Z,5.75
2019-01-19T14:03:29.929Z,5.74
2019-01-19T14:06:27.244Z,5.65
2019-01-19T14:09:39.656Z,5.62
2019-01-19T14:12:48.689Z,5.54
2019-01-19T14:15:50.588Z,5.43
2019-01-19T14:18:50.618Z,5.39
2019-01-19T14:21:56.002Z,5.47
2019-01-19T14:24:48.388Z,5.44
2019-01-19T14:27:37.383Z,5.44
2019-01-19T14:31:02.449Z,5.34
2019-01-19T14:34:10.210Z,5.29
2019-01-19T14:37:18.850Z,5.19
2019-01-19T14:40:15.750Z,5.16
2019-01-19T14:43:20.787Z,5.00
2019-01-19T14:46:12.331Z,4.96
2019-01-19T14:49:28.070Z,4.98
2019-01-19T14:52:22.597Z,4.94
2019-01-19T14:55:34.391Z,4.73
2019-01-19T14:58:37.003Z,4.59
2019-01-19T15:01:53.456Z,4.57
2019-01-19T15:05:02.424Z,4.54
2019-01-19T15:07:57.003Z,4.34
2019-01-19T15:11:06.366Z,4.30
2019-01-19T15:14:29.448Z,4.43
2019-01-19T15:17:48.470Z,4.48
2019-01-19T15:21:13.624Z,4.40
2019-01-19T15:24:15.354Z,4.35
2019-01-19T15:27:27.197Z,4.10
2019-01-19T15:30:47.403Z,4.13
2019-01-19T15:34:08.588Z,4.04
2019-01-19T15:37:24.705Z,4.08
2019-01-19T15:40:44.212Z,4.04
2019-01-19T15:44:01.160Z,3.93
2019-01-19T15:47:07.449Z,4.04
2019-01-19T15:50:20.970Z,3.90
2019-01-19T15:53:07.851Z,3.84
2019-01-19T15:56:14.211Z,4.02
2019-01-19T15:59:26.078Z,3.84
2019-01-19T16:02:47.636Z,3.77
2019-01-19T16:05:39.810Z,3.73
2019-01-19T16:08:56.199Z,3.88
2019-01-19T16:11:58.051Z,3.94
2019-01-19T16:14:54.204Z,4.00
2019-01-19T16:17:49.998Z,3.96
2019-01-19T16:20:44.028Z,3.82
2019-01-19T16:23:50.938Z,3.67
2019-01-19T16:26:50.834Z,3.59
2019-01-19T16:30:04.685Z,3.63
2019-01-19T16:33:30.106Z,3.64
2019-01-19T16:36:09.827Z,3.67
2019-01-19T16:39:01.920Z,3.71
2019-01-19T16:42:18.824Z,3.64
2019-01-19T16:45:34.238Z,3.60
2019-01-19T16:48:46.786Z,3.48
2019-01-19T16:52:03.006Z,3.52
2019-01-19T16:55:13.413Z,3.52
2019-01-19T16:58:13.957Z,3.63
2019-01-19T17:01:14.589Z,3.63
2019-01-19T17:04:02.278Z,3.89
2019-01-19T17:07:18.817Z,3.99
2019-01-19T17:10:13.068Z,4.21
2019-01-19T17:13:19.155Z,4.21
2019-01-19T17:16:20.624Z,4.30
2019-01-19T17:19:13.606Z,4.34
2019-01-19T17:22:39.110Z,4.38
2019-01-19T17:25:45.121Z,4.33
2019-01-19T17:29:04.492Z,4.43
2019-01-19T17:32:29.893Z,4.50
2019-01-19T17:35:54.770Z,4.53
2019-01-19T17:39:05.168Z,4.54
2019-01-19T17:42:05.804Z,4.62
2019-01-19T17:45:00.172Z,4.62
2019-01-19T17:48:10.295Z,4.62
2019-01-19T17:51:19.269Z,4.69
2019-01-19T17:54:22.444Z,4.76
2019-01-19T17:57:32.681Z,4.64
2019-01-19T18:00:54.176Z,4.59
2019-01-19T18:03:35.319Z,4.56
2019-01-19T18:06:31.021Z,4.56
2019-01-19T18:09:50.039Z,4.50
2019-01-19T18:13:14.747Z,3.70
2019-01-19T18:16:01.362Z,4.38
2019-01-19T18:18:46.055Z,4.45
2019-01-19T18:22:07.018Z,4.43
2019-01-19T18:25:17.765Z,4.43
2019-01-19T18:28:26.174Z,4.50
2019-01-19T18:31:41.150Z,4.50
2019-01-19T18:34:58.710Z,4.50
2019-01-19T18:38:07.676Z,4.40
2019-01-19T18:41:21.071Z,4.30
2019-01-19T18:44:43.787Z,4.28
2019-01-19T18:47:35.144Z,4.25
2019-01-19T18:50:38.526Z,4.25
2019-01-19T18:53:32.095Z,4.22
2019-01-19T18:56:25.810Z,4.21
2019-01-19T18:59:23.102Z,4.21
2019-01-19T19:02:25.501Z,4.23
2019-01-19T19:05:32.588Z,4.24
2019-01-19T19:08:30.056Z,4.25
2019-01-19T19:11:35.362Z,4.19
2019-01-19T19:14:29.274Z,4.19
2019-01-19T19:17:30.656Z,4.15
2019-01-19T19:20:41.102Z,4.15
2019-01-19T19:23:45.337Z,4.15
2019-01-19T19:26:48.269Z,4.15
2019-01-19T19:29:33.716Z,4.11
2019-01-19T19:32:56.127Z,4.11
2019-01-19T19:36:04.586Z,4.07
2019-01-19T19:38:56.060Z,4.03
2019-01-19T19:42:15.105Z,3.99
2019-01-19T19:45:13.213Z,3.94
2019-01-19T19:48:35.892Z,3.79
2019-01-19T19:51:41.130Z,3.82
2019-01-19T19:54:10.496Z,3.79
2019-01-19T19:56:38.096Z,3.76
2019-01-19T19:59:08.538Z,3.75
2019-01-19T20:01:39.103Z,3.70
2019-01-19T20:04:08.496Z,3.72
2019-01-19T20:06:37.882Z,3.69
2019-01-19T20:09:10.284Z,3.69
2019-01-19T20:11:39.738Z,3.63
2019-01-19T20:14:09.225Z,3.60
2019-01-19T20:16:38.667Z,3.57
2019-01-19T20:19:08.020Z,3.52
2019-01-19T20:21:38.279Z,3.49
2019-01-19T20:24:07.686Z,3.51
2019-01-19T20:26:37.458Z,3.51
2019-01-19T20:29:06.794Z,3.54
2019-01-19T20:31:36.178Z,3.52
2019-01-19T20:34:05.776Z,3.49
2019-01-19T20:36:35.169Z,3.44
2019-01-19T20:39:06.684Z,3.42
2019-01-19T20:41:36.061Z,3.40
2019-01-19T20:44:05.660Z,3.37
2019-01-19T20:46:35.061Z,3.40
2019-01-19T20:49:04.547Z,3.44
2019-01-19T20:51:33.909Z,3.45
2019-01-19T20:54:03.256Z,3.43
2019-01-19T20:56:32.632Z,3.39
2019-01-19T20:59:01.998Z,3.35
2019-01-19T21:01:31.386Z,3.31
2019-01-19T21:04:00.811Z,3.35
2019-01-19T21:06:30.186Z,3.33
2019-01-19T21:08:59.543Z,3.36
2019-01-19T21:11:28.910Z,3.39
2019-01-19T21:13:58.321Z,3.47
2019-01-19T21:16:27.646Z,3.09
2019-01-19T21:18:57.033Z,3.43
2019-01-19T21:21:26.410Z,3.44
2019-01-19T21:23:55.819Z,3.47
2019-01-19T21:26:25.635Z,3.47
2019-01-19T21:28:55.006Z,3.52
2019-01-19T21:31:24.347Z,3.58
2019-01-19T21:33:53.688Z,3.64
2019-01-19T21:36:23.010Z,3.62
2019-01-19T21:38:52.342Z,3.62
2019-01-19T21:41:21.725Z,3.67
2019-01-19T21:43:51.103Z,3.64
2019-01-19T21:46:20.475Z,3.64
2019-01-19T21:48:49.842Z,3.63
2019-01-19T21:51:19.215Z,3.63
2019-01-19T21:53:48.542Z,3.64
2019-01-19T21:56:17.893Z,3.66
2019-01-19T21:58:47.268Z,3.64
2019-01-19T22:01:16.613Z,3.68
2019-01-19T22:03:45.957Z,3.68
2019-01-19T22:06:15.359Z,3.66
2019-01-19T22:08:44.793Z,3.65
2019-01-19T22:11:14.155Z,1.07
2019-01-19T22:13:43.511Z,3.67
2019-01-19T22:16:13.137Z,3.66
2019-01-19T22:18:42.498Z,3.67
2019-01-19T22:21:11.861Z,3.69
2019-01-19T22:23:41.202Z,3.64
2019-01-19T22:26:13.095Z,3.65
2019-01-19T22:28:42.491Z,3.65
2019-01-19T22:31:11.947Z,3.66
2019-01-19T22:33:41.584Z,3.62
2019-01-19T22:36:11.093Z,3.61
2019-01-19T22:38:40.504Z,3.63
2019-01-19T22:41:09.999Z,3.65
2019-01-19T22:43:39.363Z,3.64
2019-01-19T22:46:08.799Z,3.60
2019-01-19T22:48:38.158Z,3.59
2019-01-19T22:51:11.354Z,3.57
2019-01-19T22:53:38.559Z,3.56
2019-01-19T22:56:07.934Z,3.54
2019-01-19T22:58:37.321Z,3.51
2019-01-19T23:01:34.005Z,3.50
2019-01-19T23:04:03.447Z,3.50
2019-01-19T23:06:32.829Z,3.48
2019-01-19T23:09:02.168Z,3.48
2019-01-19T23:11:33.997Z,3.50
2019-01-19T23:14:02.915Z,3.48
2019-01-19T23:16:32.282Z,3.47
2019-01-19T23:19:01.623Z,3.45
2019-01-19T23:21:30.984Z,3.45
2019-01-19T23:24:00.329Z,3.46
2019-01-19T23:26:30.068Z,3.48
2019-01-19T23:28:59.471Z,3.47
2019-01-19T23:31:28.949Z,3.46
2019-01-19T23:33:58.298Z,3.43
2019-01-19T23:36:27.611Z,3.41
2019-01-19T23:38:56.949Z,3.42
2019-01-19T23:41:26.337Z,3.41
2019-01-19T23:43:55.714Z,3.39
2019-01-19T23:46:25.109Z,3.38
2019-01-19T23:48:54.459Z,3.36
2019-01-19T23:51:23.949Z,3.34
2019-01-19T23:53:53.679Z,3.33
2019-01-19T23:56:23.063Z,3.29
2019-01-19T23:58:52.406Z,3.29
